createdAt,value
2023-03-23T00:06:52.449Z,57
2023-03-23T00:22:26.717Z,57
2023-03-23T00:38:01.380Z,55
2023-03-23T00:53:36.185Z,53.6
2023-03-23T01:09:10.294Z,51.8
2023-03-23T01:24:44.731Z,51.8
2023-03-23T01:40:19.123Z,51.9
2023-03-23T01:55:53.265Z,52.9
2023-03-23T02:11:27.563Z,53.6
2023-03-23T02:27:02.064Z,54.4
2023-03-23T02:42:42.437Z,54.9
2023-03-23T02:58:16.504Z,55.7
2023-03-23T03:13:50.563Z,56.4
2023-03-23T03:29:24.844Z,56.5
2023-03-23T03:44:59.394Z,56.3
2023-03-23T04:00:34.598Z,55.8
2023-03-23T04:16:33.688Z,55.4
2023-03-23T04:32:12.716Z,55.1
2023-03-23T04:47:48.183Z,55.9
2023-03-23T05:03:22.763Z,57.3
2023-03-23T05:18:56.992Z,57.3
2023-03-23T05:34:31.035Z,57
2023-03-23T05:50:05.188Z,57.8
2023-03-23T06:05:39.570Z,59.8
2023-03-23T06:21:19.691Z,61
2023-03-23T06:36:53.762Z,61.3
2023-03-23T06:52:27.832Z,63
2023-03-23T07:08:01.995Z,67
2023-03-23T07:23:36.158Z,68.4
2023-03-23T07:39:10.264Z,67.9
2023-03-23T07:54:44.338Z,67.3
2023-03-23T08:10:18.484Z,65.7
2023-03-23T08:25:53.090Z,64.9
2023-03-23T08:41:27.189Z,62.9
2023-03-23T08:57:01.342Z,61.6
2023-03-23T09:12:35.652Z,59
2023-03-23T09:28:09.746Z,57.8
2023-03-23T09:43:43.934Z,56.6
2023-03-23T09:59:18.106Z,55.4
2023-03-23T10:14:52.255Z,55.1
2023-03-23T10:30:26.535Z,55.4
2023-03-23T10:46:02.593Z,56.7
2023-03-23T11:01:37.245Z,56.7
2023-03-23T11:17:16.754Z,56.1
2023-03-23T11:32:51.013Z,54.7
2023-03-23T11:48:25.167Z,55.2
2023-03-23T12:03:59.315Z,55.5
2023-03-23T12:19:33.416Z,54.7
2023-03-23T12:35:07.636Z,50.8
2023-03-23T12:50:41.745Z,52.8
2023-03-23T13:06:15.912Z,52.3
2023-03-23T13:21:54.130Z,51.6
2023-03-23T13:37:28.317Z,52.1
2023-03-23T13:53:02.590Z,53.6
2023-03-23T14:08:36.901Z,53.9
2023-03-23T14:24:11.009Z,56.2
2023-03-23T14:39:45.106Z,57.3
2023-03-23T14:55:19.260Z,58.3
2023-03-23T15:10:53.487Z,60.5
2023-03-23T15:26:27.622Z,61.1
2023-03-23T15:42:01.866Z,60.9
2023-03-23T15:57:35.979Z,59
2023-03-23T16:13:10.114Z,59.4
2023-03-23T16:28:44.317Z,60.4
2023-03-23T16:44:18.562Z,61.8
2023-03-23T16:59:52.680Z,62.7
2023-03-23T17:15:26.822Z,64.1
2023-03-23T17:31:01.280Z,67.6
2023-03-23T17:46:35.719Z,66.7
2023-03-23T18:02:09.998Z,68.2
2023-03-23T18:17:44.245Z,69.1
2023-03-23T18:33:21.003Z,69.7
2023-03-23T18:48:55.074Z,70.6
2023-03-23T19:04:33.791Z,71.3
2023-03-23T19:37:04.020Z,73
2023-03-23T19:52:46.130Z,73.4
2023-03-23T20:08:20.980Z,73.8
2023-03-23T20:23:55.261Z,74.1
2023-03-23T20:39:29.601Z,74.7
2023-03-23T20:55:03.638Z,74.3
2023-03-23T21:10:37.739Z,73.2
2023-03-23T21:26:11.775Z,72.7
2023-03-23T21:41:45.997Z,72.2
2023-03-23T21:57:20.058Z,70.8
2023-03-23T22:12:56.621Z,71.6
2023-03-23T22:28:30.780Z,73.4
2023-03-23T22:44:04.921Z,74.7
2023-03-23T22:59:39.004Z,74.4
2023-03-23T23:15:13.037Z,75
2023-03-23T23:30:47.917Z,75.2
2023-03-23T23:46:23.056Z,75.6
